• Join FlightAware (Why Join?)
  • Login
  • US Flag 
11:32PM EST


 

Airport Tracker/Info


-or-


 

Live Flight TrackerFlight Track Log ✈ KAL31 ✈ 10-May-2013 ✈ RKSI / ICN - KDFW

Flight Track Log - Related Links

Times and Time Zones

All times are in EDT time to prevent confusion due to time zone crossing. See the KAL31 flight status page for this flight to view local times or setup timezone preferences in your user account.

Time Position Orientation Groundspeed Altitude Reporting Facility
EDT Latitude Longitude Course Direction KTS MPH feet Rate Location/Type
02:05AM 38.1167 165.0000 76° East 536 617 35,000  Level Oakland Oceanic (ODAPS)
02:11AM 38.3312 166.1003 76° East 536 617 35,000  Level FlightAware Transoceanic
02:12AM 38.3660 166.2843 77° East 536 617 35,000  Level FlightAware Transoceanic
02:13AM 38.4005 166.4685 77° East 536 617 35,000  Level FlightAware Transoceanic
02:14AM 38.4347 166.6529 77° East 536 617 35,000  Level FlightAware Transoceanic
02:15AM 38.4686 166.8374 77° East 536 617 35,000  Level FlightAware Transoceanic
02:16AM 38.5022 167.0221 77° East 536 617 35,000  Level FlightAware Transoceanic
02:17AM 38.5355 167.2070 77° East 536 617 35,000  Level FlightAware Transoceanic
02:18AM 38.5685 167.3920 77° East 536 617 35,000  Level FlightAware Transoceanic
02:19AM 38.6013 167.5773 77° East 536 617 35,000  Level FlightAware Transoceanic
02:20AM 38.6337 167.7626 77° East 536 617 35,000  Level FlightAware Transoceanic
02:21AM 38.6659 167.9482 78° East 536 617 35,000  Level FlightAware Transoceanic
02:21AM 38.7000 168.1167 78° East 550 633 35,000  Level Oakland Oceanic (ODAPS)
02:22AM 38.6977 168.1339 78° East 536 617 35,000  Level FlightAware Transoceanic
02:23AM 38.7293 168.3198 78° East 536 617 35,000  Level FlightAware Transoceanic
02:24AM 38.7605 168.5059 78° East 536 617 35,000  Level FlightAware Transoceanic
02:25AM 38.7915 168.6921 78° East 536 617 35,000  Level FlightAware Transoceanic
02:26AM 38.8222 168.8784 78° East 536 617 35,000  Level FlightAware Transoceanic
02:27AM 38.8836 169.2448 79° East 550 633 35,000  Level FlightAware Transoceanic
02:28AM 38.9132 169.4333 79° East 550 633 35,000  Level FlightAware Transoceanic
02:29AM 38.9424 169.6221 79° East 550 633 35,000  Level FlightAware Transoceanic
02:30AM 38.9714 169.8110 79° East 550 633 35,000  Level FlightAware Transoceanic
02:31AM 39.0000 170.0000 65° Northeast 550 633 35,000  Level FlightAware Transoceanic
02:32AM 39.0643 170.1803 65° Northeast 550 633 35,000  Level FlightAware Transoceanic
02:33AM 39.1284 170.3609 65° Northeast 550 633 35,000  Level FlightAware Transoceanic
02:34AM 39.1922 170.5418 66° East 550 633 35,000  Level FlightAware Transoceanic
02:35AM 39.2557 170.7231 66° East 550 633 35,000  Level FlightAware Transoceanic
02:36AM 39.3189 170.9047 66° East 550 633 35,000  Level FlightAware Transoceanic
02:37AM 39.3818 171.0866 66° East 550 633 35,000  Level FlightAware Transoceanic
02:38AM 39.4445 171.2689 66° East 550 633 35,000  Level FlightAware Transoceanic
02:39AM 39.5069 171.4514 66° East 550 633 35,000  Level FlightAware Transoceanic
02:40AM 39.5689 171.6344 66° East 550 633 35,000  Level FlightAware Transoceanic
02:41AM 39.6307 171.8176 66° East 550 633 35,000  Level FlightAware Transoceanic
02:42AM 39.6922 172.0011 67° East 550 633 35,000  Level FlightAware Transoceanic
02:43AM 39.7535 172.1850 67° East 550 633 35,000  Level FlightAware Transoceanic
02:44AM 39.8144 172.3692 67° East 550 633 35,000  Level FlightAware Transoceanic
02:45AM 39.8750 172.5538 67° East 550 633 35,000  Level FlightAware Transoceanic
02:46AM 39.9354 172.7386 67° East 550 633 35,000  Level FlightAware Transoceanic
02:47AM 39.9954 172.9238 67° East 550 633 35,000  Level FlightAware Transoceanic
02:48AM 40.0552 173.1094 67° East 550 633 35,000  Level FlightAware Transoceanic
02:49AM 40.1146 173.2952 67° East 550 633 35,000  Level FlightAware Transoceanic
02:50AM 40.1738 173.4814 67° East 550 633 35,000  Level FlightAware Transoceanic
02:51AM 40.2326 173.6678 68° East 550 633 35,000  Level FlightAware Transoceanic
02:52AM 40.2912 173.8547 68° East 550 633 35,000  Level FlightAware Transoceanic
02:53AM 40.3494 174.0418 68° East 550 633 35,000  Level FlightAware Transoceanic
02:54AM 40.4074 174.2292 68° East 550 633 35,000  Level FlightAware Transoceanic
02:55AM 40.4651 174.4170 68° East 550 633 35,000  Level FlightAware Transoceanic
02:56AM 40.5224 174.6051 68° East 550 633 35,000  Level FlightAware Transoceanic
02:57AM 40.5794 174.7936 68° East 550 633 35,000  Level FlightAware Transoceanic
02:58AM 40.6362 174.9823 68° East 550 633 35,000  Level FlightAware Transoceanic
02:59AM 40.6926 175.1714 69° East 550 633 35,000  Level FlightAware Transoceanic
03:00AM 40.7487 175.3607 69° East 550 633 35,000  Level FlightAware Transoceanic
03:01AM 40.8045 175.5504 69° East 550 633 35,000  Level FlightAware Transoceanic
03:02AM 40.8600 175.7405 69° East 550 633 35,000  Level FlightAware Transoceanic
03:03AM 40.9152 175.9308 69° East 550 633 35,000  Level FlightAware Transoceanic
03:04AM 40.9701 176.1215 69° East 550 633 35,000  Level FlightAware Transoceanic
03:05AM 41.0247 176.3124 69° East 550 633 35,000  Level FlightAware Transoceanic
03:06AM 41.0789 176.5037 69° East 550 633 35,000  Level FlightAware Transoceanic
03:07AM 41.1328 176.6953 70° East 550 633 35,000  Level FlightAware Transoceanic
03:08AM 41.1864 176.8873 70° East 550 633 35,000  Level FlightAware Transoceanic
03:09AM 41.2397 177.0795 70° East 550 633 35,000  Level FlightAware Transoceanic
03:10AM 41.2927 177.2720 70° East 550 633 35,000  Level FlightAware Transoceanic
03:11AM 41.3453 177.4649 70° East 550 633 35,000  Level FlightAware Transoceanic
03:12AM 41.3977 177.6581 70° East 550 633 35,000  Level FlightAware Transoceanic
03:13AM 41.4497 177.8515 70° East 550 633 35,000  Level FlightAware Transoceanic
03:14AM 41.5013 178.0453 70° East 550 633 35,000  Level FlightAware Transoceanic
03:15AM 41.5527 178.2394 71° East 550 633 35,000  Level FlightAware Transoceanic
03:16AM 41.6037 178.4338 71° East 550 633 35,000  Level FlightAware Transoceanic
03:17AM 41.6544 178.6285 71° East 550 633 35,000  Level FlightAware Transoceanic
03:18AM 41.7048 178.8235 71° East 550 633 35,000  Level FlightAware Transoceanic
03:19AM 41.7548 179.0189 71° East 550 633 35,000  Level FlightAware Transoceanic
03:20AM 41.8045 179.2145 71° East 550 633 35,000  Level FlightAware Transoceanic
03:21AM 41.8539 179.4104 71° East 550 633 35,000  Level FlightAware Transoceanic
03:22AM 41.9029 179.6066 72° East 550 633 35,000  Level FlightAware Transoceanic
03:23AM 41.9516 179.8032 72° East 550 633 35,000  Level FlightAware Transoceanic
03:24AM 42.0147 -179.9399 72° East  Level FlightAware Approximate
03:25AM 42.0040 -179.8737 88° East  Level FlightAware Approximate
03:26AM 42.0121 -179.6032 88° East  Level FlightAware Approximate
03:27AM 42.0195 -179.3327 88° East  Level FlightAware Approximate
03:28AM 42.0263 -179.0622 88° East  Level FlightAware Approximate
03:29AM 42.0324 -178.7916 88° East  Level FlightAware Approximate
03:30AM 42.0411 -178.5211 87° East  Level FlightAware Approximate
03:31AM 42.0498 -178.2505 87° East  Level FlightAware Approximate
03:32AM 42.0578 -177.9799 88° East  Level FlightAware Approximate
03:33AM 42.0652 -177.7092 88° East  Level FlightAware Approximate
03:34AM 42.0719 -177.4385 88° East  Level FlightAware Approximate
03:35AM 42.0780 -177.1677 88° East  Level FlightAware Approximate
03:36AM 42.0834 -176.8968 88° East  Level FlightAware Approximate
03:37AM 42.0883 -176.6259 89° East  Level FlightAware Approximate
03:38AM 42.0924 -176.3550 89° East  Level FlightAware Approximate
03:39AM 42.0960 -176.0840 89° East  Level FlightAware Approximate
03:40AM 42.0989 -175.8131 89° East  Level FlightAware Approximate
03:41AM 42.1012 -175.5420 89° East  Level FlightAware Approximate
03:42AM 42.1028 -175.2710 89° East  Level FlightAware Approximate
03:43AM 42.1038 -175.0000 90° East  Level FlightAware Approximate
03:44AM 42.1042 -174.7289 90° East  Level FlightAware Approximate
03:45AM 42.1039 -174.4579 90° East  Level FlightAware Approximate
03:46AM 42.1030 -174.1868 90° East  Level FlightAware Approximate
03:47AM 42.1014 -173.9158 90° East  Level FlightAware Approximate
03:48AM 42.0990 -173.6448 91° East  Level FlightAware Approximate
03:49AM 42.0956 -173.3738 91° East  Level FlightAware Approximate
03:50AM 42.0916 -173.1028 91° East  Level FlightAware Approximate
03:51AM 42.0870 -172.8319 91° East  Level FlightAware Approximate
03:52AM 42.0817 -172.5611 91° East  Level FlightAware Approximate
03:53AM 42.0757 -172.2903 92° East  Level FlightAware Approximate
03:54AM 42.0692 -172.0195 92° East  Level FlightAware Approximate
03:55AM 42.0620 -171.7488 92° East  Level FlightAware Approximate
03:56AM 42.0541 -171.4781 92° East  Level FlightAware Approximate
03:57AM 42.0456 -171.2075 92° East  Level FlightAware Approximate
03:58AM 42.0365 -170.9370 93° East  Level FlightAware Approximate
03:59AM 42.0268 -170.6666 93° East  Level FlightAware Approximate
04:00AM 42.0164 -170.3963 93° East  Level FlightAware Approximate
04:01AM 42.0054 -170.1260 93° East  Level FlightAware Approximate
04:02AM 41.9919 -169.8560 94° East  Level FlightAware Approximate
04:03AM 41.9763 -169.5863 94° East  Level FlightAware Approximate
04:04AM 41.9600 -169.3167 95° East  Level FlightAware Approximate
04:05AM 41.9432 -169.0473 95° East  Level FlightAware Approximate
04:06AM 41.9257 -168.7780 95° East  Level FlightAware Approximate
04:07AM 41.9075 -168.5088 95° East  Level FlightAware Approximate
04:08AM 41.8887 -168.2398 95° East  Level FlightAware Approximate
04:09AM 41.8694 -167.9710 95° East  Level FlightAware Approximate
04:10AM 41.8493 -167.7023 96° East  Level FlightAware Approximate
04:11AM 41.8287 -167.4338 96° East  Level FlightAware Approximate
04:12AM 41.8074 -167.1655 96° East  Level FlightAware Approximate
04:12AM 41.9833 -169.7667 94° East 580 667 35,000  Level Oakland Oceanic (ODAPS)
04:13AM 41.7855 -166.8974 96° East  Level FlightAware Approximate
04:14AM 41.7630 -166.6294 96° East  Level FlightAware Approximate
04:15AM 41.7399 -166.3616 97° East  Level FlightAware Approximate
04:16AM 41.7161 -166.0941 97° East  Level FlightAware Approximate
04:17AM 41.6917 -165.8267 97° East  Level FlightAware Approximate
04:18AM 41.9023 -168.4776 95° East 580 667 35,000  Level FlightAware Transoceanic
04:19AM 41.8874 -168.2630 95° East 580 667 35,000  Level FlightAware Transoceanic
04:20AM 41.8721 -168.0486 96° East 580 667 35,000  Level FlightAware Transoceanic
04:21AM 41.8564 -167.8343 96° East 580 667 35,000  Level FlightAware Transoceanic
04:22AM 41.8404 -167.6201 96° East 580 667 35,000  Level FlightAware Transoceanic
04:23AM 41.8239 -167.4060 96° East 580 667 35,000  Level FlightAware Transoceanic
04:24AM 41.8070 -167.1920 96° East 580 667 35,000  Level FlightAware Transoceanic
04:25AM 41.7897 -166.9781 96° East 580 667 35,000  Level FlightAware Transoceanic
04:26AM 41.7720 -166.7643 96° East 580 667 35,000  Level FlightAware Transoceanic
04:26AM 41.7833 -166.8167 96° East 578 665 35,000  Level Oakland Oceanic (ODAPS)
04:27AM 41.7539 -166.5507 97° East 580 667 35,000  Level FlightAware Transoceanic
04:28AM 41.7354 -166.3372 97° East 580 667 35,000  Level FlightAware Transoceanic
04:29AM 41.7166 -166.1238 97° East 580 667 35,000  Level FlightAware Transoceanic
04:30AM 41.6973 -165.9105 97° East 580 667 35,000  Level FlightAware Transoceanic
04:31AM 41.6777 -165.6974 97° East 580 667 35,000  Level FlightAware Transoceanic
04:32AM 41.6673 -165.5266 97° East 578 665 35,000  Level FlightAware Transoceanic
04:33AM 41.6465 -165.3121 97° East 578 665 35,000  Level FlightAware Transoceanic
04:34AM 41.6254 -165.0977 98° East 578 665 35,000  Level FlightAware Transoceanic
04:35AM 41.6039 -164.8834 98° East 578 665 35,000  Level FlightAware Transoceanic
04:36AM 41.5819 -164.6693 98° East 578 665 35,000  Level FlightAware Transoceanic
04:37AM 41.5596 -164.4553 98° East 578 665 35,000  Level FlightAware Transoceanic
04:38AM 41.5369 -164.2415 98° East 578 665 35,000  Level FlightAware Transoceanic
04:39AM 41.5137 -164.0278 98° East 578 665 35,000  Level FlightAware Transoceanic
04:40AM 41.4902 -163.8143 98° East 578 665 35,000  Level FlightAware Transoceanic
04:40AM 41.5000 -163.9833 98° East 552 635 35,000  Level Oakland Oceanic (ODAPS)
04:41AM 41.4663 -163.6010 99° East 578 665 35,000  Level FlightAware Transoceanic
04:42AM 41.4420 -163.3878 99° East 578 665 35,000  Level FlightAware Transoceanic
04:43AM 41.4173 -163.1747 99° East 578 665 35,000  Level FlightAware Transoceanic
04:44AM 41.3922 -162.9619 99° East 578 665 35,000  Level FlightAware Transoceanic
04:45AM 41.3667 -162.7491 99° East 578 665 35,000  Level FlightAware Transoceanic
04:46AM 41.3644 -162.7820 99° East 552 635 35,000  Level FlightAware Transoceanic
04:47AM 41.3406 -162.5823 99° East 552 635 35,000  Level FlightAware Transoceanic
04:48AM 41.3165 -162.3827 99° East 552 635 35,000  Level FlightAware Transoceanic
04:49AM 41.2920 -162.1833 99° East 552 635 35,000  Level FlightAware Transoceanic
04:50AM 41.2672 -161.9840 99° East 552 635 35,000  Level FlightAware Transoceanic
04:51AM 41.2420 -161.7849 100° East 552 635 35,000  Level FlightAware Transoceanic
04:52AM 41.2165 -161.5860 100° East 552 635 35,000  Level FlightAware Transoceanic
04:53AM 41.1906 -161.3871 100° East 552 635 35,000  Level FlightAware Transoceanic
04:54AM 41.1644 -161.1885 100° East 552 635 35,000  Level FlightAware Transoceanic
04:54AM 41.1833 -161.2833 100° East 536 617 35,000  Level Oakland Oceanic (ODAPS)
04:55AM 41.1378 -160.9900 100° East 552 635 35,000  Level FlightAware Transoceanic
04:56AM 41.1110 -160.7917 100° East 552 635 35,000  Level FlightAware Transoceanic
04:57AM 41.0837 -160.5935 100° East 552 635 35,000  Level FlightAware Transoceanic
04:58AM 41.0561 -160.3955 101° East 552 635 35,000  Level FlightAware Transoceanic
04:59AM 41.0282 -160.1977 101° East 552 635 35,000  Level FlightAware Transoceanic
05:00AM 41.0000 -160.0000 87° East 536 617 35,000  Level FlightAware Transoceanic
05:01AM 41.0077 -159.8186 87° East 536 617 35,000  Level FlightAware Transoceanic
05:01AM 41.0000 -160.0000 87° East 520 598 35,000  Level Oakland Oceanic (ODAPS)
05:02AM 41.0151 -159.6371 87° East 536 617 35,000  Level FlightAware Transoceanic
05:03AM 41.0223 -159.4556 87° East 536 617 35,000  Level FlightAware Transoceanic
05:04AM 41.0292 -159.2740 87° East 536 617 35,000  Level FlightAware Transoceanic
05:05AM 41.0357 -159.0924 87° East 536 617 35,000  Level FlightAware Transoceanic
05:06AM 41.0420 -158.9108 87° East 536 617 35,000  Level FlightAware Transoceanic
05:07AM 41.0441 -158.8479 87° East 520 598 35,000  Level FlightAware Transoceanic
05:07AM 41.0500 -158.6667 88° East 510 587 35,000  Level Oakland Oceanic (ODAPS)
05:08AM 41.0504 -158.6557 88° East 520 598 35,000  Level FlightAware Transoceanic
05:09AM 41.0563 -158.4635 88° East 520 598 35,000  Level FlightAware Transoceanic
05:10AM 41.0619 -158.2713 88° East 520 598 35,000  Level FlightAware Transoceanic
05:11AM 41.0672 -158.0790 88° East 520 598 35,000  Level FlightAware Transoceanic
05:12AM 41.0722 -157.8867 88° East 520 598 35,000  Level FlightAware Transoceanic
05:13AM 41.0768 -157.6944 88° East 520 598 35,000  Level FlightAware Transoceanic
05:14AM 41.0803 -157.5367 88° East 510 587 35,000  Level FlightAware Transoceanic
05:15AM 41.0843 -157.3483 88° East 510 587 35,000  Level FlightAware Transoceanic
05:16AM 41.0880 -157.1598 89° East 510 587 35,000  Level FlightAware Transoceanic
05:17AM 41.0914 -156.9713 89° East 510 587 35,000  Level FlightAware Transoceanic
05:18AM 41.0944 -156.7829 89° East 510 587 35,000  Level FlightAware Transoceanic
05:19AM 41.0972 -156.5944 89° East 510 587 35,000  Level FlightAware Transoceanic
05:20AM 41.0996 -156.4058 89° East 510 587 35,000  Level FlightAware Transoceanic
05:21AM 41.1018 -156.2173 89° East 510 587 35,000  Level FlightAware Transoceanic
05:21AM 41.1000 -156.0833 89° East 504 580 35,000  Level Oakland Oceanic (ODAPS)
05:22AM 41.1036 -156.0288 89° East 510 587 35,000  Level FlightAware Transoceanic
05:23AM 41.1051 -155.8402 89° East 510 587 35,000  Level FlightAware Transoceanic
05:24AM 41.1063 -155.6517 90° East 510 587 35,000  Level FlightAware Transoceanic
05:25AM 41.1072 -155.4631 90° East 510 587 35,000  Level FlightAware Transoceanic
05:26AM 41.1078 -155.2745 90° East 510 587 35,000  Level FlightAware Transoceanic
05:27AM 41.1055 -155.1320 90° East 504 580 35,000  Level FlightAware Transoceanic
05:28AM 41.1056 -154.9418 90° East 504 580 35,000  Level FlightAware Transoceanic
05:29AM 41.1055 -154.7515 90° East 504 580 35,000  Level FlightAware Transoceanic
05:30AM 41.1050 -154.5612 90° East 504 580 35,000  Level FlightAware Transoceanic
05:31AM 41.1042 -154.3710 90° East 504 580 35,000  Level FlightAware Transoceanic
05:32AM 41.1031 -154.1807 90° East 504 580 35,000  Level FlightAware Transoceanic
05:33AM 41.1017 -153.9904 91° East 504 580 35,000  Level FlightAware Transoceanic
05:34AM 41.1000 -153.8002 91° East 504 580 35,000  Level FlightAware Transoceanic
05:35AM 41.0980 -153.6100 91° East 504 580 35,000  Level FlightAware Transoceanic
05:35AM 41.1000 -153.5500 91° East 495 570 35,000  Level Oakland Oceanic (ODAPS)
05:36AM 41.0956 -153.4198 91° East 504 580 35,000  Level FlightAware Transoceanic
05:37AM 41.0930 -153.2295 91° East 504 580 35,000  Level FlightAware Transoceanic
05:38AM 41.0900 -153.0394 91° East 504 580 35,000  Level FlightAware Transoceanic
05:39AM 41.0867 -152.8492 91° East 504 580 35,000  Level FlightAware Transoceanic
05:40AM 41.0831 -152.6590 92° East 504 580 35,000  Level FlightAware Transoceanic
05:41AM 41.0792 -152.4689 92° East 504 580 35,000  Level FlightAware Transoceanic
05:42AM 41.0774 -152.3063 92° East 495 570 35,000  Level FlightAware Transoceanic
05:43AM 41.0731 -152.1288 92° East 495 570 35,000  Level FlightAware Transoceanic
05:44AM 41.0685 -151.9512 92° East 495 570 35,000  Level FlightAware Transoceanic
05:45AM 41.0636 -151.7737 92° East 495 570 35,000  Level FlightAware Transoceanic
05:46AM 41.0585 -151.5961 92° East 495 570 35,000  Level FlightAware Transoceanic
05:47AM 41.0531 -151.4187 92° East 495 570 35,000  Level FlightAware Transoceanic
05:48AM 41.0474 -151.2412 92° East 495 570 35,000  Level FlightAware Transoceanic
05:49AM 41.0414 -151.0638 93° East 495 570 35,000  Level FlightAware Transoceanic
05:49AM 41.0333 -151.0667 92° East 489 563 35,000  Level Oakland Oceanic (ODAPS)
05:50AM 41.0352 -150.8864 93° East 495 570 35,000  Level FlightAware Transoceanic
05:51AM 41.0287 -150.7090 93° East 495 570 35,000  Level FlightAware Transoceanic
05:52AM 41.0219 -150.5317 93° East 495 570 35,000  Level FlightAware Transoceanic
05:53AM 41.0149 -150.3544 93° East 495 570 35,000  Level FlightAware Transoceanic
05:54AM 41.0076 -150.1772 93° East 495 570 35,000  Level FlightAware Transoceanic
05:55AM 41.0000 -150.0000 87° East 495 570 35,000  Level FlightAware Transoceanic
05:55AM 41.0000 -150.0000 87° East 502 578 35,000  Level Oakland Oceanic (ODAPS)
05:56AM 41.0079 -149.8152 87° East 489 563 35,000  Level FlightAware Transoceanic
05:57AM 41.0154 -149.6304 87° East 489 563 35,000  Level FlightAware Transoceanic
05:58AM 41.0227 -149.4455 87° East 489 563 35,000  Level FlightAware Transoceanic
05:59AM 41.0297 -149.2605 87° East 489 563 35,000  Level FlightAware Transoceanic
06:00AM 41.0363 -149.0756 87° East 489 563 35,000  Level FlightAware Transoceanic
06:01AM 41.0427 -148.8906 87° East 502 578 35,000  Level FlightAware Transoceanic
06:02AM 41.0488 -148.7055 88° East 502 578 35,000  Level FlightAware Transoceanic
06:03AM 41.0546 -148.5205 88° East 502 578 35,000  Level FlightAware Transoceanic
06:03AM 41.0500 -148.5667 88° East 502 578 35,000  Level Oakland Oceanic (ODAPS)
06:04AM 41.0601 -148.3354 88° East 502 578 35,000  Level FlightAware Transoceanic
06:05AM 41.0653 -148.1502 88° East 502 578 35,000  Level FlightAware Transoceanic
06:06AM 41.0702 -147.9651 88° East 502 578 35,000  Level FlightAware Transoceanic
06:07AM 41.0748 -147.7799 88° East 502 578 35,000  Level FlightAware Transoceanic
06:08AM 41.0791 -147.5947 88° East 502 578 35,000  Level FlightAware Transoceanic
06:09AM 41.0790 -147.4735 88° East 502 578 35,000  Level FlightAware Transoceanic
06:10AM 41.0828 -147.2912 88° East 502 578 35,000  Level FlightAware Transoceanic
06:11AM 41.0863 -147.1089 89° East 502 578 35,000  Level FlightAware Transoceanic
06:12AM 41.0896 -146.9265 89° East 502 578 35,000  Level FlightAware Transoceanic
06:13AM 41.0925 -146.7442 89° East 502 578 35,000  Level FlightAware Transoceanic
06:14AM 41.0952 -146.5618 89° East 502 578 35,000  Level FlightAware Transoceanic
06:15AM 41.0976 -146.3795 89° East 502 578 35,000  Level FlightAware Transoceanic
06:16AM 41.0997 -146.1971 89° East 502 578 35,000  Level FlightAware Transoceanic
06:17AM 41.1015 -146.0147 89° East 502 578 35,000 1,500 Level FlightAware Transoceanic
06:17AM 41.1000 -146.0667 89° East 509 586 37,000  Climbing Oakland Oceanic (ODAPS)
06:18AM 41.1030 -145.8323 89° East 502 578 35,000 -1,200 Descending FlightAware Transoceanic
06:19AM 41.1043 -145.6499 90° East 502 578 35,000  Level FlightAware Transoceanic
06:20AM 41.1052 -145.4675 90° East 502 578 35,000  Level FlightAware Transoceanic
06:21AM 41.1059 -145.2850 90° East 502 578 35,000  Level FlightAware Transoceanic
06:22AM 41.1063 -145.1026 90° East 502 578 35,000 960 Level FlightAware Transoceanic
06:23AM 41.1055 -144.9282 90° East 509 586 37,000 960 Climbing FlightAware Transoceanic
06:24AM 41.1053 -144.7385 90° East 509 586 37,000  Level FlightAware Transoceanic
06:25AM 41.1049 -144.5487 90° East 509 586 37,000  Level FlightAware Transoceanic
06:26AM 41.1041 -144.3590 90° East 509 586 37,000  Level FlightAware Transoceanic
06:27AM 41.1030 -144.1692 91° East 509 586 37,000  Level FlightAware Transoceanic
06:28AM 41.1015 -143.9795 91° East 509 586 37,000  Level FlightAware Transoceanic
06:29AM 41.0998 -143.7898 91° East 509 586 37,000  Level FlightAware Transoceanic
06:30AM 41.0978 -143.6001 91° East 509 586 37,000  Level FlightAware Transoceanic
06:31AM 41.0954 -143.4104 91° East 509 586 37,000  Level FlightAware Transoceanic
06:31AM 41.1000 -143.4500 91° East 519 597 37,000  Level Oakland Oceanic (ODAPS)
06:32AM 41.0928 -143.2207 91° East 509 586 37,000  Level FlightAware Transoceanic
06:33AM 41.0898 -143.0310 91° East 509 586 37,000  Level FlightAware Transoceanic
06:34AM 41.0865 -142.8414 91° East 509 586 37,000  Level FlightAware Transoceanic
06:35AM 41.0829 -142.6517 92° East 509 586 37,000  Level FlightAware Transoceanic
06:36AM 41.0790 -142.4621 92° East 509 586 37,000  Level FlightAware Transoceanic
06:37AM 41.0781 -142.2989 92° East 519 597 37,000  Level FlightAware Transoceanic
06:38AM 41.0733 -142.1071 92° East 519 597 37,000  Level FlightAware Transoceanic
06:39AM 41.0683 -141.9154 92° East 519 597 37,000  Level FlightAware Transoceanic
06:40AM 41.0629 -141.7237 92° East 519 597 37,000  Level FlightAware Transoceanic
06:41AM 41.0572 -141.5320 92° East 519 597 37,000  Level FlightAware Transoceanic
06:42AM 41.0511 -141.3404 92° East 519 597 37,000  Level FlightAware Transoceanic
06:43AM 41.0448 -141.1488 93° East 519 597 37,000  Level FlightAware Transoceanic
06:44AM 41.0381 -140.9572 93° East 519 597 37,000  Level FlightAware Transoceanic
06:45AM 41.0311 -140.7657 93° East 519 597 37,000  Level FlightAware Transoceanic
06:45AM 41.0333 -140.8500 93° East 511 588 37,000  Level Oakland Oceanic (ODAPS)
06:46AM 41.0238 -140.5742 93° East 519 597 37,000  Level FlightAware Transoceanic
06:47AM 41.0162 -140.3828 93° East 519 597 37,000  Level FlightAware Transoceanic
06:48AM 41.0083 -140.1913 93° East 519 597 37,000  Level FlightAware Transoceanic
06:49AM 41.0000 -140.0000 87° East 519 597 37,000  Level FlightAware Transoceanic
06:50AM 41.0083 -139.8043 87° East 519 597 37,000  Level FlightAware Transoceanic
06:50AM 41.0000 -140.0000 87° East 531 611 37,000  Level Oakland Oceanic (ODAPS)
06:51AM 41.0163 -139.6086 87° East 511 588 37,000  Level FlightAware Transoceanic
06:52AM 41.0239 -139.4128 87° East 511 588 37,000  Level FlightAware Transoceanic
06:53AM 41.0312 -139.2170 87° East 511 588 37,000  Level FlightAware Transoceanic
06:54AM 41.0382 -139.0212 87° East 511 588 37,000  Level FlightAware Transoceanic
06:55AM 41.0449 -138.8253 87° East 511 588 37,000  Level FlightAware Transoceanic
06:56AM 41.0449 -138.8253 87° East 531 611 37,000  Level FlightAware Transoceanic
06:57AM 41.0512 -138.6293 88° East 531 611 37,000  Level FlightAware Transoceanic
06:58AM 41.0572 -138.4334 88° East 531 611 37,000  Level FlightAware Transoceanic
06:58AM 41.0667 -138.2000 88° East 540 621 37,000  Level Oakland Oceanic (ODAPS)
06:59AM 41.0629 -138.2374 88° East 531 611 37,000  Level FlightAware Transoceanic
07:00AM 41.0682 -138.0413 88° East 531 611 37,000  Level FlightAware Transoceanic
07:01AM 41.0732 -137.8452 88° East 531 611 37,000  Level FlightAware Transoceanic
07:02AM 41.0778 -137.6492 88° East 531 611 37,000  Level FlightAware Transoceanic
07:03AM 41.0822 -137.4530 88° East 531 611 37,000  Level FlightAware Transoceanic
07:04AM 41.0862 -137.2569 89° East 531 611 37,000  Level FlightAware Transoceanic
07:05AM 41.0933 -137.0000 89° East 540 621 37,000  Level FlightAware Transoceanic
07:06AM 41.0965 -136.8000 89° East 540 621 37,000  Level FlightAware Transoceanic
07:07AM 41.0993 -136.5999 89° East 540 621 37,000  Level FlightAware Transoceanic
07:08AM 41.1019 -136.3997 89° East 540 621 37,000  Level FlightAware Transoceanic
07:09AM 41.1041 -136.1996 89° East 540 621 37,000  Level FlightAware Transoceanic
07:10AM 41.1059 -135.9995 89° East 540 621 37,000  Level FlightAware Transoceanic
07:11AM 41.1074 -135.7993 90° East 540 621 37,000  Level FlightAware Transoceanic
07:12AM 41.1085 -135.5992 90° East 540 621 37,000  Level FlightAware Transoceanic
07:12AM 41.1000 -135.5333 90° East 533 613 37,000  Level Oakland Oceanic (ODAPS)
07:13AM 41.1093 -135.3990 90° East 540 621 37,000  Level FlightAware Transoceanic
07:14AM 41.1098 -135.1988 90° East 540 621 37,000  Level FlightAware Transoceanic
07:15AM 41.1099 -134.9987 90° East 540 621 37,000  Level FlightAware Transoceanic
07:16AM 41.1096 -134.7985 90° East 540 621 37,000  Level FlightAware Transoceanic
07:17AM 41.1090 -134.5983 90° East 540 621 37,000  Level FlightAware Transoceanic
07:18AM 41.1081 -134.3981 90° East 540 621 37,000  Level FlightAware Transoceanic
07:19AM 41.1009 -134.3466 90° East 533 613 37,000  Level FlightAware Transoceanic
07:20AM 41.0998 -134.1488 90° East 533 613 37,000  Level FlightAware Transoceanic
07:21AM 41.0985 -133.9510 91° East 533 613 37,000  Level FlightAware Transoceanic
07:22AM 41.0967 -133.7532 91° East 533 613 37,000  Level FlightAware Transoceanic
07:23AM 41.0947 -133.5555 91° East 533 613 37,000  Level FlightAware Transoceanic
07:24AM 41.0923 -133.3577 91° East 533 613 37,000  Level FlightAware Transoceanic
07:25AM 41.0896 -133.1600 91° East 533 613 37,000  Level FlightAware Transoceanic
07:26AM 41.0865 -132.9623 91° East 533 613 37,000  Level FlightAware Transoceanic
07:26AM 41.0833 -132.8667 91° East 540 621 37,000  Level Oakland Oceanic (ODAPS)
07:27AM 41.0831 -132.7646 91° East 533 613 37,000  Level FlightAware Transoceanic
07:28AM 41.0793 -132.5669 92° East 533 613 37,000  Level FlightAware Transoceanic
07:29AM 41.0753 -132.3692 92° East 533 613 37,000  Level FlightAware Transoceanic
07:30AM 41.0709 -132.1716 92° East 533 613 37,000  Level FlightAware Transoceanic
07:31AM 41.0661 -131.9740 92° East 533 613 37,000  Level FlightAware Transoceanic
07:32AM 41.0585 -131.7191 92° East 540 621 37,000  Level FlightAware Transoceanic
07:33AM 41.0533 -131.5280 92° East 540 621 37,000  Level FlightAware Transoceanic
07:34AM 41.0477 -131.3369 92° East 540 621 37,000  Level FlightAware Transoceanic
07:35AM 41.0419 -131.1458 92° East 540 621 37,000  Level FlightAware Transoceanic
07:36AM 41.0357 -130.9547 93° East 540 621 37,000  Level FlightAware Transoceanic
07:37AM 41.0292 -130.7637 93° East 540 621 37,000  Level FlightAware Transoceanic
07:38AM 41.0224 -130.5727 93° East 540 621 37,000  Level FlightAware Transoceanic
07:39AM 41.0152 -130.3818 93° East 540 621 37,000  Level FlightAware Transoceanic
07:40AM 41.0078 -130.1909 93° East 540 621 37,000  Level FlightAware Transoceanic
07:40AM 41.0000 -130.1667 90° East 529 609 37,000  Level Oakland Oceanic (ODAPS)
07:41AM 41.0000 -130.0000 106° East 540 621 37,000  Level FlightAware Transoceanic
07:41AM 41.0000 -130.0000 106° East 534 615 37,000  Level Oakland Oceanic (ODAPS)
07:42AM 40.9585 -129.8107 106° East 540 621 37,000  Level FlightAware Transoceanic
07:43AM 40.9168 -129.6216 106° East 540 621 37,000  Level FlightAware Transoceanic
07:44AM 40.8747 -129.4327 106° East 540 621 37,000  Level FlightAware Transoceanic
07:45AM 40.8323 -129.2441 107° East 540 621 37,000  Level FlightAware Transoceanic
07:46AM 40.7896 -129.0558 107° East 529 609 37,000  Level FlightAware Transoceanic
07:47AM 40.7466 -128.8676 107° East 529 609 37,000  Level FlightAware Transoceanic
07:48AM 40.7033 -128.6798 107° East 534 615 37,000  Level FlightAware Transoceanic
07:49AM 40.6597 -128.4921 107° East 534 615 37,000  Level FlightAware Transoceanic
07:50AM 40.6158 -128.3047 107° East 534 615 37,000  Level FlightAware Transoceanic
07:51AM 40.5716 -128.1176 107° East 534 615 37,000  Level FlightAware Transoceanic
07:52AM 40.5271 -127.9307 107° East 534 615 37,000  Level FlightAware Transoceanic
07:53AM 40.4823 -127.7441 108° East 534 615 37,000  Level FlightAware Transoceanic
07:54AM 40.4371 -127.5577 108° East 534 615 37,000  Level FlightAware Transoceanic
07:54AM 40.4500 -127.6000 108° East 531 611 37,000  Level Oakland Oceanic (ODAPS)
07:54AM 40.4214 -127.4894 113° Southeast 526 605 37,000  Level Oakland Center
07:55AM 40.3917 -127.3715 108° East 534 615 37,000  Level FlightAware Transoceanic
07:55AM 40.3817 -127.3036 106° East 528 608 37,000  Level Oakland Center
07:56AM 40.3460 -127.1856 108° East 534 615 37,000 -120 Level FlightAware Transoceanic
07:56AM 40.3453 -127.1167 104° East 531 611 36,900  Descending Oakland Center
07:57AM 40.3000 -127.0000 112° Southeast 534 615 37,000 60 Climbing FlightAware Transoceanic
07:57AM 40.3081 -126.9300 105° East 532 612 37,000  Level Oakland Center
07:58AM 40.2458 -126.8274 112° Southeast 534 615 37,000  Level FlightAware Transoceanic
07:58AM 40.2697 -126.7433 105° East 532 612 37,000  Level Oakland Center
07:59AM 40.1914 -126.6550 113° Southeast 534 615 37,000  Level FlightAware Transoceanic
07:59AM 40.2311 -126.5564 105° East 534 615 37,000  Level Oakland Center
08:00AM 40.1367 -126.4830 113° Southeast 531 611 37,000  Level FlightAware Transoceanic
08:00AM 40.1914 -126.3692 105° East 534 615 37,000 -60 Level Oakland Center
08:01AM 40.1522 -126.1836 105° East 533 613 36,900 -60 Descending Oakland Center
08:02AM 40.1119 -125.9981 106° East 533 613 36,900  Level Oakland Center
08:03AM 40.0703 -125.8125 106° East 534 615 36,900  Level Oakland Center
08:04AM 40.0322 -125.6278 105° East 531 611 36,900  Level Oakland Center
08:05AM 39.9917 -125.4425 106° East 532 612 36,900  Level Oakland Center
08:06AM 39.9508 -125.2578 106° East 533 613 37,000  Climbing Oakland Center
08:07AM 39.9097 -125.0750 106° East 531 611 37,000  Level Oakland Center
08:08AM 39.8681 -124.8933 107° East 529 609 37,000 -60 Level Oakland Center
08:09AM 39.8186 -124.6750 106° East 528 608 36,900 -60 Descending Oakland Center
08:10AM 39.7778 -124.4958 106° East 524 603 36,900  Level Oakland Center
08:11AM 39.7372 -124.3144 106° East 528 608 36,900  Level Oakland Center
08:12AM 39.6947 -124.1369 107° East 521 600 36,900  Level Oakland Center
08:13AM 39.6533 -123.9569 107° East 525 604 37,000  Climbing Oakland Center
08:14AM 39.6103 -123.7769 107° East 527 606 37,000 -60 Level Oakland Center
08:15AM 39.5681 -123.5964 107° East 527 606 36,900 -60 Descending Oakland Center
08:16AM 39.5253 -123.4150 107° East 529 609 36,900  Level Oakland Center
08:17AM 39.4822 -123.2333 107° East 530 610 37,000  Climbing Oakland Center
08:18AM 39.4358 -123.0453 108° East 522 601 37,000  Level Oakland Center
08:19AM 39.3936 -122.8703 107° East 513 590 37,000  Level Oakland Center
08:20AM 39.3561 -122.7253 108° East 507 583 37,000  Level Oakland Center
08:21AM 39.3131 -122.5525 108° East 510 587 37,000  Level Oakland Center
08:22AM 39.2661 -122.3636 108° East 501 577 37,000  Level Oakland Center
08:23AM 39.2236 -122.1919 108° East 502 578 37,000  Level Oakland Center
08:24AM 39.1789 -122.0211 109° East 503 579 37,000  Level Oakland Center
08:25AM 39.1344 -121.8494 108° East 502 578 37,000  Level Oakland Center
08:26AM 39.0897 -121.6781 109° East 503 579 37,000  Level Oakland Center
08:28AM 39.0669 -121.5019 99° East 494 568 37,000  Level Oakland Center
08:29AM 39.0522 -121.3239 96° East 494 568 37,000  Level Oakland Center
08:30AM 39.0369 -121.1483 96° East 489 563 37,000  Level Oakland Center
08:31AM 39.0225 -120.9756 96° East 484 557 37,000  Level Oakland Center
08:32AM 39.0081 -120.8017 96° East 484 557 37,000  Level Oakland Center
08:33AM 38.9900 -120.6239 97° East 492 566 37,000  Level Oakland Center
08:34AM 38.9736 -120.4497 97° East 491 565 37,000 240 Level Oakland Center
08:35AM 38.9575 -120.2758 97° East 490 564 37,600 720 Climbing Oakland Center
08:36AM 38.9425 -120.1056 96° East 482 555 38,500 660 Climbing Oakland Center
08:37AM 38.9278 -119.9333 96° East 482 555 39,000 240 Climbing Oakland Center
08:38AM 38.9114 -119.7847 98° East 483 556 39,000  Level Oakland Center
08:39AM 38.8942 -119.6144 97° East 483 556 39,000  Level Oakland Center
08:40AM 38.8769 -119.4464 97° East 479 551 39,000  Level Oakland Center
08:41AM 38.8594 -119.2761 97° East 482 555 39,000  Level Oakland Center
08:42AM 38.8428 -119.1081 97° East 480 552 39,000  Level Oakland Center
08:43AM 38.8253 -118.9414 98° East 475 547 39,000  Level Oakland Center
08:44AM 38.8075 -118.7731 98° East 480 552 39,000  Level Oakland Center
08:45AM 38.7867 -118.5717 97° East 478 550 39,000  Level Oakland Center
08:46AM 38.7675 -118.4036 98° East 479 551 39,000  Level Oakland Center
08:47AM 38.7494 -118.2353 98° East 479 551 39,000  Level Oakland Center
08:48AM 38.7303 -118.0658 98° East 481 554 39,000  Level Oakland Center
08:49AM 38.7106 -117.8953 98° East 485 558 39,000  Level Oakland Center
08:50AM 38.6925 -117.7331 98° East 483 556 39,000  Level Oakland Center
08:51AM 38.6719 -117.5617 99° East 484 557 39,000  Level Oakland Center
08:52AM 38.6514 -117.3922 99° East 480 552 39,000  Level Oakland Center
08:53AM 38.6269 -117.1878 99° East 480 552 39,000  Level Salt Lake Center
08:54AM 38.6103 -117.0519 99° East 481 554 39,000  Level Oakland Center
08:55AM 38.5886 -116.8808 99° East 482 555 39,000  Level Oakland Center
08:56AM 38.5675 -116.7117 99° East 479 551 39,000  Level Oakland Center
08:57AM 38.5444 -116.5400 100° East 484 557 39,000  Level Oakland Center
08:57AM 38.5414 -116.5061 97° East 484 557 39,000  Level Salt Lake Center
08:58AM 38.5231 -116.3706 100° East 483 556 39,000  Level Oakland Center
08:59AM 38.5000 -116.2003 100° East 485 558 39,000  Level Oakland Center
09:00AM 38.4778 -116.0308 99° East 484 557 39,000  Level Oakland Center
09:00AM 38.4739 -115.9972 98° East 484 557 39,000  Level Salt Lake Center
09:01AM 38.4517 -115.8283 99° East 482 555 39,000  Level Salt Lake Center
09:02AM 38.4292 -115.6614 100° East 480 552 39,000  Level Salt Lake Center
09:03AM 38.4061 -115.4928 100° East 481 554 39,000  Level Salt Lake Center
09:04AM 38.3833 -115.3297 100° East 479 551 39,000  Level Salt Lake Center
09:05AM 38.3603 -115.1628 100° East 481 554 39,000  Level Salt Lake Center
09:06AM 38.3375 -114.9956 100° East 480 552 39,000  Level Salt Lake Center
09:07AM 38.3081 -114.7953 101° East 481 554 39,000  Level Salt Lake Center
09:08AM 38.2844 -114.6283 100° East 481 554 39,000  Level Salt Lake Center
09:09AM 38.2603 -114.4611 100° East 482 555 39,000  Level Salt Lake Center
09:10AM 38.2617 -114.2950 89° East 471 542 39,000  Level Salt Lake Center
09:11AM 38.2733 -114.1308 85° East 466 536 39,000  Level Salt Lake Center
09:12AM 38.2850 -113.9661 85° East 467 537 39,000  Level Salt Lake Center
09:13AM 38.2989 -113.8039 84° East 464 534 39,000  Level Salt Lake Center
09:14AM 38.3125 -113.6403 84° East 464 534 39,000  Level Salt Lake Center
09:15AM 38.3258 -113.4761 84° East 465 535 39,000  Level Salt Lake Center
09:16AM 38.3381 -113.3125 85° East 464 534 39,000  Level Salt Lake Center
09:17AM 38.3508 -113.1492 84° East 463 533 39,000  Level Salt Lake Center
09:18AM 38.3497 -112.9856 90° East 463 533 39,000  Level Salt Lake Center
09:19AM 38.3053 -112.8264 110° East 473 544 39,000  Level Salt Lake Center
09:20AM 38.2564 -112.6672 111° Southeast 479 551 39,000  Level Salt Lake Center
09:21AM 38.2089 -112.5092 111° Southeast 478 550 39,000  Level Salt Lake Center
09:22AM 38.1600 -112.3511 111° Southeast 478 550 39,000  Level Salt Lake Center
09:23AM 38.1117 -112.1928 111° Southeast 479 551 39,000  Level Salt Lake Center
09:24AM 38.0617 -112.0339 112° Southeast 482 555 39,000  Level Salt Lake Center
09:25AM 38.0128 -111.8750 111° Southeast 483 556 39,000  Level Salt Lake Center
09:26AM 37.9625 -111.7172 112° Southeast 482 555 39,000  Level Salt Lake Center
09:27AM 37.9025 -111.5278 112° Southeast 483 556 39,000  Level Salt Lake Center
09:28AM 37.8528 -111.3692 112° Southeast 483 556 39,000  Level Salt Lake Center
09:29AM 37.8025 -111.2125 112° Southeast 482 555 39,000  Level Salt Lake Center
09:30AM 37.7714 -111.1186 113° Southeast 479 551 39,000  Level Denver Center
09:31AM 37.7214 -110.9622 112° Southeast 481 554 39,000  Level Denver Center
09:32AM 37.6700 -110.8056 112° Southeast 483 556 39,000  Level Denver Center
09:33AM 37.6194 -110.6500 112° Southeast 481 554 39,000  Level Denver Center
09:34AM 37.5633 -110.4822 113° Southeast 483 556 39,000  Level Denver Center
09:35AM 37.5144 -110.3322 112° Southeast 485 558 39,000  Level Denver Center
09:36AM 37.4561 -110.1572 113° Southeast 484 557 39,000  Level Denver Center
09:37AM 37.4075 -110.0089 112° Southeast 482 555 39,000  Level Denver Center
09:38AM 37.3572 -109.8592 113° Southeast 486 559 39,000  Level Denver Center
09:39AM 37.2981 -109.6861 113° Southeast 484 557 39,000  Level Denver Center
09:40AM 37.2472 -109.5356 113° Southeast 487 560 39,000  Level Denver Center
09:41AM 37.1961 -109.3850 113° Southeast 487 560 39,000  Level Denver Center
09:42AM 37.1361 -109.2103 113° Southeast 489 563 39,000  Level Denver Center
09:43AM 37.0853 -109.0597 113° Southeast 490 564 39,000  Level Denver Center
09:44AM 37.0247 -108.8847 113° Southeast 488 562 39,000  Level Denver Center
09:45AM 36.9728 -108.7353 113° Southeast 488 562 39,000  Level Denver Center
09:46AM 36.9206 -108.5864 114° Southeast 486 559 39,000  Level Denver Center
09:47AM 36.8597 -108.4119 114° Southeast 488 562 39,000  Level Denver Center
09:48AM 36.8067 -108.2625 114° Southeast 489 563 39,000  Level Denver Center
09:49AM 36.7544 -108.1150 114° Southeast 485 558 39,000  Level Denver Center
09:50AM 36.6944 -107.9450 114° Southeast 481 554 39,000  Level Denver Center
09:51AM 36.6419 -107.7975 114° Southeast 484 557 39,000  Level Denver Center
09:52AM 36.5903 -107.6519 114° Southeast 481 554 39,000  Level Denver Center
09:53AM 36.5292 -107.4814 114° Southeast 481 554 39,000  Level Denver Center
09:54AM 36.4778 -107.3361 114° Southeast 480 552 39,000  Level Denver Center
09:55AM 36.4275 -107.1878 113° Southeast 483 556 39,000  Level Denver Center
09:56AM 36.3864 -107.0108 106° East 479 551 39,000  Level Denver Center
09:57AM 36.3531 -106.8836 108° East 485 558 39,000  Level Albuquerque Center
09:58AM 36.3053 -106.7083 109° East 483 556 39,000  Level Albuquerque Center
09:59AM 36.2647 -106.5564 108° East 484 557 39,000  Level Albuquerque Center
10:00AM 36.2222 -106.4044 109° East 486 559 39,000  Level Albuquerque Center
10:01AM 36.1758 -106.2275 108° East 485 558 39,000  Level Albuquerque Center
10:02AM 36.1331 -106.0731 109° East 488 562 39,000  Level Albuquerque Center
10:03AM 36.0908 -105.9156 108° East 484 557 39,000  Level Albuquerque Center
10:04AM 36.0475 -105.7581 109° East 483 556 39,000  Level Albuquerque Center
10:05AM 36.0053 -105.5997 108° East 484 557 39,000  Level Albuquerque Center
10:06AM 35.9544 -105.4200 109° East 481 554 39,000  Level Albuquerque Center
10:08AM 35.9100 -105.2622 109° East 483 556 39,000  Level Albuquerque Center
10:09AM 35.8639 -105.1056 110° East 481 554 39,000  Level Albuquerque Center
10:10AM 35.8200 -104.9469 109° East 483 556 39,000  Level Albuquerque Center
10:11AM 35.7747 -104.7861 109° East 489 563 39,000  Level Albuquerque Center
10:12AM 35.7294 -104.6275 109° East 488 562 39,000  Level Albuquerque Center
10:13AM 35.6839 -104.4683 109° East 487 560 39,000  Level Albuquerque Center
10:14AM 35.6372 -104.3072 110° East 491 565 39,000  Level Albuquerque Center
10:15AM 35.5914 -104.1472 109° East 490 564 39,000  Level Albuquerque Center
10:16AM 35.5439 -103.9856 110° East 493 567 39,000  Level Albuquerque Center
10:17AM 35.4972 -103.8233 109° East 494 568 39,000  Level Albuquerque Center
10:18AM 35.4492 -103.6628 110° East 495 570 39,000  Level Albuquerque Center
10:19AM 35.4017 -103.5011 110° East 496 571 39,000  Level Albuquerque Center
10:20AM 35.3531 -103.3394 110° East 499 574 39,000  Level Albuquerque Center
10:21AM 35.3050 -103.1789 110° East 499 574 39,000  Level Albuquerque Center
10:22AM 35.2569 -103.0181 110° East 499 574 39,000  Level Albuquerque Center
10:23AM 35.2053 -102.8525 111° Southeast 501 577 39,000  Level Albuquerque Center
10:24AM 35.1567 -102.6939 111° Southeast 501 577 39,000  Level Albuquerque Center
10:25AM 35.0981 -102.5025 110° East 503 579 39,000  Level Albuquerque Center
10:26AM 35.0492 -102.3444 111° Southeast 502 578 39,000  Level Albuquerque Center
10:27AM 34.9994 -102.1867 111° Southeast 502 578 39,000  Level Albuquerque Center
10:28AM 34.9508 -102.0294 111° Southeast 501 577 39,000  Level Albuquerque Center
10:29AM 34.9017 -101.8725 111° Southeast 502 578 39,000  Level Albuquerque Center
10:30AM 34.8417 -101.6836 111° Southeast 504 580 39,000  Level Albuquerque Center
10:31AM 34.7906 -101.5244 111° Southeast 508 585 39,000  Level Albuquerque Center
10:32AM 34.7403 -101.3647 111° Southeast 510 587 39,000  Level Albuquerque Center
10:33AM 34.6886 -101.2044 111° Southeast 511 588 39,000  Level Albuquerque Center
10:34AM 34.6369 -101.0450 111° Southeast 511 588 39,000  Level Albuquerque Center
10:35AM 34.5861 -100.8864 111° Southeast 507 583 39,000  Level Albuquerque Center
10:36AM 34.5244 -100.6978 112° Southeast 506 582 39,000 -180 Level Albuquerque Center
10:37AM 34.4750 -100.5444 111° Southeast 495 570 38,700 -780 Descending Albuquerque Center
10:38AM 34.4250 -100.3958 112° Southeast 483 556 37,500 -1,080 Descending Albuquerque Center
10:39AM 34.3747 -100.2464 112° Southeast 481 554 36,500 -1,020 Descending Albuquerque Center
10:40AM 34.3456 -100.1528 111° Southeast 480 552 35,800 -1,020 Descending Fort Worth Center
10:41AM 34.2886 -99.9900 113° Southeast 480 552 34,800 -840 Descending Fort Worth Center
10:42AM 34.2414 -99.8453 112° Southeast 475 547 34,200 -720 Descending Fort Worth Center
10:43AM 34.1903 -99.6883 111° Southeast 469 540 33,400 -780 Descending Fort Worth Center
10:44AM 34.1425 -99.5489 112° Southeast 451 519 32,700 -660 Descending Fort Worth Center
10:45AM 34.0928 -99.4072 113° Southeast 451 519 32,100 -600 Descending Fort Worth Center
10:46AM 34.0489 -99.2733 112° Southeast 442 509 31,600 -600 Descending Fort Worth Center
10:47AM 34.0028 -99.1422 113° Southeast 436 502 31,000 -480 Descending Fort Worth Center
10:48AM 33.9964 -98.9942 93° East 423 487 30,700 -420 Descending Fort Worth Center
10:49AM 33.9961 -98.8489 90° East 430 495 30,200 -600 Descending Fort Worth Center
10:50AM 33.9639 -98.7383 109° East 403 464 29,600 -840 Descending Fort Worth Center
10:51AM 33.9108 -98.6197 118° Southeast 391 450 28,600 -1,440 Descending Fort Worth Center
10:52AM 33.8536 -98.4939 119° Southeast 397 457 26,800 -1,740 Descending Fort Worth Center
10:53AM 33.8003 -98.3783 119° Southeast 397 457 25,200 -1,680 Descending Fort Worth Center
10:54AM 33.7531 -98.2803 120° Southeast 384 442 23,500 -1,680 Descending Fort Worth Center
10:55AM 33.7014 -98.1675 119° Southeast 384 442 21,900 -1,800 Descending Fort Worth Center
10:56AM 33.6397 -98.0372 120° Southeast 400 460 19,900 -1,980 Descending Fort Worth Center
10:57AM 33.5839 -97.9197 120° Southeast 400 460 18,000 -1,800 Descending Fort Worth Center
10:58AM 33.5258 -97.8097 122° Southeast 400 460 16,400 -1,740 Descending Fort Worth Center
10:59AM 33.4467 -97.7197 136° Southeast 395 455 14,600 -1,620 Descending Fort Worth Center
11:00AM 33.3758 -97.6325 134° Southeast 374 430 13,200 -1,500 Descending Fort Worth Center
11:01AM 33.3072 -97.5528 136° Southeast 362 417 11,700 -1,140 Descending Fort Worth Center
11:02AM 33.2425 -97.4781 136° Southeast 325 374 11,000 -360 Descending Fort Worth Center
11:03AM 33.1800 -97.4061 136° Southeast 320 368 11,000  Level Fort Worth Center
11:04AM 33.1172 -97.3317 135° Southeast 315 362 11,000  Level Fort Worth Center
11:05AM 33.0544 -97.2597 136° Southeast 315 362 11,000  Level Fort Worth Center
11:06AM 33.0003 -97.1956 135° Southeast 287 330 11,000 -240 Level Fort Worth Center
11:07AM 32.9353 -97.1708 162° South 232 267 10,600 -720 Descending Fort Worth Center
11:08AM 32.8708 -97.1711 180° South 243 280 9,600 -1,140 Descending Fort Worth Center
11:09AM 32.7978 -97.1686 178° South 248 285 8,400 -1,200 Descending Fort Worth Center
11:10AM 32.7350 -97.1689 180° South 248 285 7,300 -1,080 Descending Fort Worth Center
11:11AM 32.6578 -97.1692 180° South 253 291 6,300 -960 Descending Fort Worth Center
11:12AM 32.5994 -97.1692 180° South 246 283 5,400 -420 Descending Fort Worth Center
11:14AM 32.6167 -97.0500 80° East 209 241 5,000 -300 Descending Dallas / Fort Worth TRACON
11:15AM 32.6667 -97.0500 360° North 207 238 4,600 -780 Descending Dallas / Fort Worth TRACON
11:16AM 32.7167 -97.0500 360° North 204 235 3,600 -1,080 Descending Dallas / Fort Worth TRACON
11:17AM 32.7833 -97.0500 360° North 192 221 2,600 -960 Descending Dallas / Fort Worth TRACON
11:18AM 32.8167 -97.0500 360° North 150 173 1,800 -900 Descending Dallas / Fort Worth TRACON